sensor_id;sensor_type;location;lat;lon;timestamp;P1;durP1;ratioP1;P2;durP2;ratioP2
11486;SDS011;10510;47.942;9.442;2022-12-17T00:01:16;21.88;;;9.90;;
11486;SDS011;10510;47.942;9.442;2022-12-17T00:03:35;17.65;;;8.27;;
11486;SDS011;10510;47.942;9.442;2022-12-17T00:05:54;20.55;;;9.15;;
11486;SDS011;10510;47.942;9.442;2022-12-17T00:08:13;17.88;;;7.78;;
11486;SDS011;10510;47.942;9.442;2022-12-17T00:10:32;19.88;;;8.93;;
11486;SDS011;10510;47.942;9.442;2022-12-17T00:12:55;18.95;;;9.00;;
11486;SDS011;10510;47.942;9.442;2022-12-17T00:15:14;13.07;;;7.65;;
11486;SDS011;10510;47.942;9.442;2022-12-17T00:17:33;20.27;;;9.23;;
11486;SDS011;10510;47.942;9.442;2022-12-17T00:19:52;15.90;;;7.57;;
11486;SDS011;10510;47.942;9.442;2022-12-17T00:22:10;23.00;;;9.68;;
11486;SDS011;10510;47.942;9.442;2022-12-17T00:24:29;20.80;;;8.00;;
11486;SDS011;10510;47.942;9.442;2022-12-17T00:26:48;20.52;;;8.68;;
11486;SDS011;10510;47.942;9.442;2022-12-17T00:29:07;22.38;;;8.60;;
11486;SDS011;10510;47.942;9.442;2022-12-17T00:31:26;20.35;;;8.15;;
11486;SDS011;10510;47.942;9.442;2022-12-17T00:33:46;17.23;;;7.57;;
11486;SDS011;10510;47.942;9.442;2022-12-17T00:36:05;19.52;;;9.30;;
11486;SDS011;10510;47.942;9.442;2022-12-17T00:38:24;23.60;;;9.10;;
11486;SDS011;10510;47.942;9.442;2022-12-17T00:40:43;17.75;;;8.50;;
11486;SDS011;10510;47.942;9.442;2022-12-17T00:43:08;20.50;;;9.68;;
11486;SDS011;10510;47.942;9.442;2022-12-17T00:45:28;20.15;;;8.35;;
11486;SDS011;10510;47.942;9.442;2022-12-17T00:47:47;16.88;;;8.15;;
11486;SDS011;10510;47.942;9.442;2022-12-17T00:50:06;16.05;;;7.55;;
11486;SDS011;10510;47.942;9.442;2022-12-17T00:52:25;19.58;;;9.13;;
11486;SDS011;10510;47.942;9.442;2022-12-17T00:54:44;24.33;;;9.00;;
11486;SDS011;10510;47.942;9.442;2022-12-17T00:57:03;19.13;;;7.85;;
11486;SDS011;10510;47.942;9.442;2022-12-17T00:59:22;23.65;;;8.95;;
11486;SDS011;10510;47.942;9.442;2022-12-17T01:01:41;22.60;;;9.13;;
11486;SDS011;10510;47.942;9.442;2022-12-17T01:04:00;22.77;;;9.75;;
11486;SDS011;10510;47.942;9.442;2022-12-17T01:06:19;19.30;;;9.27;;
11486;SDS011;10510;47.942;9.442;2022-12-17T01:08:38;29.10;;;10.55;;
11486;SDS011;10510;47.942;9.442;2022-12-17T01:10:58;18.55;;;8.70;;
11486;SDS011;10510;47.942;9.442;2022-12-17T01:13:20;27.38;;;10.18;;
11486;SDS011;10510;47.942;9.442;2022-12-17T01:15:38;21.02;;;9.48;;
11486;SDS011;10510;47.942;9.442;2022-12-17T01:17:57;26.90;;;9.30;;
11486;SDS011;10510;47.942;9.442;2022-12-17T01:20:16;23.17;;;8.85;;
11486;SDS011;10510;47.942;9.442;2022-12-17T01:22:35;20.83;;;9.18;;
11486;SDS011;10510;47.942;9.442;2022-12-17T01:24:54;27.13;;;9.48;;
11486;SDS011;10510;47.942;9.442;2022-12-17T01:27:13;24.85;;;10.23;;
11486;SDS011;10510;47.942;9.442;2022-12-17T01:29:32;16.75;;;7.53;;
11486;SDS011;10510;47.942;9.442;2022-12-17T01:31:51;20.42;;;8.85;;
11486;SDS011;10510;47.942;9.442;2022-12-17T01:34:09;16.88;;;8.80;;
11486;SDS011;10510;47.942;9.442;2022-12-17T01:36:28;22.65;;;8.52;;
11486;SDS011;10510;47.942;9.442;2022-12-17T01:38:47;23.60;;;9.38;;
11486;SDS011;10510;47.942;9.442;2022-12-17T01:41:06;23.63;;;8.55;;
11486;SDS011;10510;47.942;9.442;2022-12-17T01:43:31;21.30;;;9.57;;
11486;SDS011;10510;47.942;9.442;2022-12-17T01:45:51;27.05;;;8.80;;
11486;SDS011;10510;47.942;9.442;2022-12-17T01:48:12;29.00;;;9.70;;
11486;SDS011;10510;47.942;9.442;2022-12-17T01:50:36;24.15;;;9.48;;
11486;SDS011;10510;47.942;9.442;2022-12-17T01:52:58;30.15;;;9.05;;
11486;SDS011;10510;47.942;9.442;2022-12-17T01:55:21;25.23;;;9.68;;
11486;SDS011;10510;47.942;9.442;2022-12-17T01:57:39;28.13;;;10.43;;
11486;SDS011;10510;47.942;9.442;2022-12-17T02:00:03;31.17;;;11.10;;
11486;SDS011;10510;47.942;9.442;2022-12-17T02:02:24;23.42;;;9.48;;
11486;SDS011;10510;47.942;9.442;2022-12-17T02:04:43;27.88;;;10.15;;
11486;SDS011;10510;47.942;9.442;2022-12-17T02:07:09;31.48;;;11.10;;
11486;SDS011;10510;47.942;9.442;2022-12-17T02:09:51;22.98;;;10.43;;
11486;SDS011;10510;47.942;9.442;2022-12-17T02:14:44;28.27;;;9.52;;
11486;SDS011;10510;47.942;9.442;2022-12-17T02:17:11;24.70;;;9.50;;
11486;SDS011;10510;47.942;9.442;2022-12-17T02:19:59;23.73;;;9.65;;
11486;SDS011;10510;47.942;9.442;2022-12-17T02:22:53;30.85;;;9.88;;
11486;SDS011;10510;47.942;9.442;2022-12-17T02:25:38;25.77;;;9.77;;
11486;SDS011;10510;47.942;9.442;2022-12-17T02:28:09;20.63;;;8.82;;
11486;SDS011;10510;47.942;9.442;2022-12-17T02:30:29;23.27;;;10.18;;
11486;SDS011;10510;47.942;9.442;2022-12-17T02:32:57;25.73;;;10.52;;
11486;SDS011;10510;47.942;9.442;2022-12-17T02:35:19;29.63;;;9.52;;
11486;SDS011;10510;47.942;9.442;2022-12-17T02:37:48;20.50;;;9.15;;
11486;SDS011;10510;47.942;9.442;2022-12-17T02:40:11;20.25;;;8.65;;
11486;SDS011;10510;47.942;9.442;2022-12-17T02:42:30;26.23;;;9.82;;
11486;SDS011;10510;47.942;9.442;2022-12-17T02:45:10;23.25;;;8.40;;
11486;SDS011;10510;47.942;9.442;2022-12-17T02:47:29;24.02;;;8.27;;
11486;SDS011;10510;47.942;9.442;2022-12-17T02:49:49;18.00;;;7.35;;
11486;SDS011;10510;47.942;9.442;2022-12-17T02:52:08;18.85;;;7.10;;
11486;SDS011;10510;47.942;9.442;2022-12-17T02:54:29;21.73;;;8.35;;
11486;SDS011;10510;47.942;9.442;2022-12-17T02:56:49;20.15;;;8.32;;
11486;SDS011;10510;47.942;9.442;2022-12-17T02:59:08;18.80;;;8.25;;
11486;SDS011;10510;47.942;9.442;2022-12-17T03:01:26;21.50;;;8.43;;
11486;SDS011;10510;47.942;9.442;2022-12-17T03:03:45;19.52;;;8.93;;
11486;SDS011;10510;47.942;9.442;2022-12-17T03:06:04;18.90;;;8.35;;
11486;SDS011;10510;47.942;9.442;2022-12-17T03:08:23;25.73;;;8.43;;
11486;SDS011;10510;47.942;9.442;2022-12-17T03:10:41;20.48;;;8.48;;
11486;SDS011;10510;47.942;9.442;2022-12-17T03:13:00;21.25;;;8.48;;
11486;SDS011;10510;47.942;9.442;2022-12-17T03:15:19;21.80;;;8.40;;
11486;SDS011;10510;47.942;9.442;2022-12-17T03:17:38;19.48;;;8.32;;
11486;SDS011;10510;47.942;9.442;2022-12-17T03:19:57;24.23;;;7.88;;
11486;SDS011;10510;47.942;9.442;2022-12-17T03:22:15;20.40;;;7.80;;
11486;SDS011;10510;47.942;9.442;2022-12-17T03:24:34;23.40;;;8.15;;
11486;SDS011;10510;47.942;9.442;2022-12-17T03:26:53;18.98;;;7.30;;
11486;SDS011;10510;47.942;9.442;2022-12-17T03:29:12;23.08;;;8.77;;
11486;SDS011;10510;47.942;9.442;2022-12-17T03:31:30;21.05;;;9.50;;
11486;SDS011;10510;47.942;9.442;2022-12-17T03:33:50;20.30;;;8.52;;
11486;SDS011;10510;47.942;9.442;2022-12-17T03:36:09;23.63;;;8.15;;
11486;SDS011;10510;47.942;9.442;2022-12-17T03:38:28;27.48;;;10.32;;
11486;SDS011;10510;47.942;9.442;2022-12-17T03:40:50;30.63;;;10.35;;
11486;SDS011;10510;47.942;9.442;2022-12-17T03:43:09;27.98;;;11.32;;
11486;SDS011;10510;47.942;9.442;2022-12-17T03:45:29;26.90;;;10.68;;
11486;SDS011;10510;47.942;9.442;2022-12-17T03:47:48;36.47;;;11.13;;
11486;SDS011;10510;47.942;9.442;2022-12-17T03:50:06;25.73;;;9.40;;
11486;SDS011;10510;47.942;9.442;2022-12-17T03:52:25;21.20;;;8.25;;
11486;SDS011;10510;47.942;9.442;2022-12-17T03:54:43;23.15;;;9.45;;
11486;SDS011;10510;47.942;9.442;2022-12-17T03:57:02;22.75;;;8.77;;
11486;SDS011;10510;47.942;9.442;2022-12-17T03:59:21;25.25;;;9.35;;
11486;SDS011;10510;47.942;9.442;2022-12-17T04:01:40;24.00;;;9.80;;
11486;SDS011;10510;47.942;9.442;2022-12-17T04:03:59;22.63;;;10.10;;
11486;SDS011;10510;47.942;9.442;2022-12-17T04:06:18;29.52;;;9.32;;
11486;SDS011;10510;47.942;9.442;2022-12-17T04:08:37;15.20;;;7.70;;
11486;SDS011;10510;47.942;9.442;2022-12-17T04:10:55;25.20;;;9.45;;
11486;SDS011;10510;47.942;9.442;2022-12-17T04:13:14;29.33;;;10.35;;
11486;SDS011;10510;47.942;9.442;2022-12-17T04:15:33;19.65;;;8.60;;
11486;SDS011;10510;47.942;9.442;2022-12-17T04:17:52;26.08;;;9.35;;
11486;SDS011;10510;47.942;9.442;2022-12-17T04:20:11;22.02;;;9.40;;
11486;SDS011;10510;47.942;9.442;2022-12-17T04:22:30;26.67;;;11.18;;
11486;SDS011;10510;47.942;9.442;2022-12-17T04:24:49;21.83;;;8.80;;
11486;SDS011;10510;47.942;9.442;2022-12-17T04:27:07;25.98;;;10.65;;
11486;SDS011;10510;47.942;9.442;2022-12-17T04:29:26;24.10;;;10.48;;
11486;SDS011;10510;47.942;9.442;2022-12-17T04:31:44;23.98;;;10.07;;
11486;SDS011;10510;47.942;9.442;2022-12-17T04:34:03;26.10;;;10.27;;
11486;SDS011;10510;47.942;9.442;2022-12-17T04:36:22;22.83;;;10.02;;
11486;SDS011;10510;47.942;9.442;2022-12-17T04:38:41;24.25;;;8.68;;
11486;SDS011;10510;47.942;9.442;2022-12-17T04:40:59;26.13;;;10.30;;
11486;SDS011;10510;47.942;9.442;2022-12-17T04:43:18;23.35;;;8.88;;
11486;SDS011;10510;47.942;9.442;2022-12-17T04:45:37;28.88;;;9.45;;
11486;SDS011;10510;47.942;9.442;2022-12-17T04:47:59;22.25;;;10.57;;
11486;SDS011;10510;47.942;9.442;2022-12-17T04:50:19;25.23;;;9.93;;
11486;SDS011;10510;47.942;9.442;2022-12-17T04:52:38;28.30;;;9.90;;
11486;SDS011;10510;47.942;9.442;2022-12-17T04:55:16;29.67;;;10.75;;
11486;SDS011;10510;47.942;9.442;2022-12-17T04:57:35;26.63;;;10.27;;
11486;SDS011;10510;47.942;9.442;2022-12-17T04:59:54;22.10;;;9.98;;
11486;SDS011;10510;47.942;9.442;2022-12-17T05:02:13;20.58;;;9.88;;
11486;SDS011;10510;47.942;9.442;2022-12-17T05:04:32;22.35;;;9.60;;
11486;SDS011;10510;47.942;9.442;2022-12-17T05:06:52;27.92;;;9.75;;
11486;SDS011;10510;47.942;9.442;2022-12-17T05:09:11;19.10;;;8.98;;
11486;SDS011;10510;47.942;9.442;2022-12-17T05:11:29;22.58;;;9.65;;
11486;SDS011;10510;47.942;9.442;2022-12-17T05:13:48;27.05;;;9.70;;
11486;SDS011;10510;47.942;9.442;2022-12-17T05:16:07;21.70;;;8.63;;
11486;SDS011;10510;47.942;9.442;2022-12-17T05:18:27;27.85;;;9.13;;
11486;SDS011;10510;47.942;9.442;2022-12-17T05:20:46;20.95;;;9.68;;
11486;SDS011;10510;47.942;9.442;2022-12-17T05:23:22;21.85;;;9.57;;
11486;SDS011;10510;47.942;9.442;2022-12-17T05:25:40;19.33;;;7.97;;
11486;SDS011;10510;47.942;9.442;2022-12-17T05:27:59;19.27;;;8.77;;
11486;SDS011;10510;47.942;9.442;2022-12-17T05:30:17;20.85;;;8.27;;
11486;SDS011;10510;47.942;9.442;2022-12-17T05:32:36;20.13;;;8.57;;
11486;SDS011;10510;47.942;9.442;2022-12-17T05:34:55;20.35;;;7.68;;
11486;SDS011;10510;47.942;9.442;2022-12-17T05:37:14;19.67;;;7.78;;
11486;SDS011;10510;47.942;9.442;2022-12-17T05:39:33;23.95;;;8.68;;
11486;SDS011;10510;47.942;9.442;2022-12-17T05:41:52;20.90;;;9.25;;
11486;SDS011;10510;47.942;9.442;2022-12-17T05:44:10;26.83;;;9.48;;
11486;SDS011;10510;47.942;9.442;2022-12-17T05:46:29;19.52;;;8.30;;
11486;SDS011;10510;47.942;9.442;2022-12-17T05:48:48;17.60;;;8.35;;
11486;SDS011;10510;47.942;9.442;2022-12-17T05:51:07;19.92;;;7.43;;
11486;SDS011;10510;47.942;9.442;2022-12-17T05:53:26;23.58;;;8.73;;
11486;SDS011;10510;47.942;9.442;2022-12-17T05:55:49;23.38;;;8.20;;
11486;SDS011;10510;47.942;9.442;2022-12-17T05:58:09;25.67;;;8.43;;
11486;SDS011;10510;47.942;9.442;2022-12-17T06:00:28;18.35;;;7.07;;
11486;SDS011;10510;47.942;9.442;2022-12-17T06:02:47;21.00;;;7.43;;
11486;SDS011;10510;47.942;9.442;2022-12-17T06:05:06;18.83;;;7.85;;
11486;SDS011;10510;47.942;9.442;2022-12-17T06:07:25;19.00;;;7.28;;
11486;SDS011;10510;47.942;9.442;2022-12-17T06:09:44;21.67;;;8.02;;
11486;SDS011;10510;47.942;9.442;2022-12-17T06:12:03;19.15;;;7.80;;
11486;SDS011;10510;47.942;9.442;2022-12-17T06:14:22;16.42;;;7.53;;
11486;SDS011;10510;47.942;9.442;2022-12-17T06:16:41;20.33;;;7.38;;
11486;SDS011;10510;47.942;9.442;2022-12-17T06:19:00;16.58;;;7.50;;
11486;SDS011;10510;47.942;9.442;2022-12-17T06:21:19;24.90;;;8.23;;
11486;SDS011;10510;47.942;9.442;2022-12-17T06:23:38;23.45;;;8.75;;
11486;SDS011;10510;47.942;9.442;2022-12-17T06:25:57;21.45;;;7.78;;
11486;SDS011;10510;47.942;9.442;2022-12-17T06:28:16;13.43;;;6.30;;
11486;SDS011;10510;47.942;9.442;2022-12-17T06:30:35;17.13;;;7.28;;
11486;SDS011;10510;47.942;9.442;2022-12-17T06:33:07;16.25;;;8.10;;
11486;SDS011;10510;47.942;9.442;2022-12-17T06:35:27;19.25;;;7.35;;
11486;SDS011;10510;47.942;9.442;2022-12-17T06:37:46;20.85;;;6.35;;
11486;SDS011;10510;47.942;9.442;2022-12-17T06:40:05;19.50;;;7.32;;
11486;SDS011;10510;47.942;9.442;2022-12-17T06:42:24;21.83;;;7.95;;
11486;SDS011;10510;47.942;9.442;2022-12-17T06:44:43;13.10;;;6.68;;
11486;SDS011;10510;47.942;9.442;2022-12-17T06:47:02;17.75;;;7.03;;
11486;SDS011;10510;47.942;9.442;2022-12-17T06:49:21;25.52;;;11.35;;
11486;SDS011;10510;47.942;9.442;2022-12-17T06:51:39;29.27;;;9.40;;
11486;SDS011;10510;47.942;9.442;2022-12-17T06:53:58;17.77;;;7.88;;
11486;SDS011;10510;47.942;9.442;2022-12-17T06:56:17;19.17;;;8.13;;
11486;SDS011;10510;47.942;9.442;2022-12-17T06:58:36;24.02;;;7.97;;
11486;SDS011;10510;47.942;9.442;2022-12-17T07:00:54;24.50;;;8.07;;
11486;SDS011;10510;47.942;9.442;2022-12-17T07:03:13;22.17;;;8.10;;
11486;SDS011;10510;47.942;9.442;2022-12-17T07:05:32;21.27;;;8.43;;
11486;SDS011;10510;47.942;9.442;2022-12-17T07:07:58;17.97;;;7.20;;
11486;SDS011;10510;47.942;9.442;2022-12-17T07:10:17;19.83;;;7.15;;
11486;SDS011;10510;47.942;9.442;2022-12-17T07:12:36;16.75;;;7.40;;
11486;SDS011;10510;47.942;9.442;2022-12-17T07:14:55;21.50;;;8.13;;
11486;SDS011;10510;47.942;9.442;2022-12-17T07:17:14;24.08;;;9.73;;
11486;SDS011;10510;47.942;9.442;2022-12-17T07:19:33;24.23;;;9.77;;
11486;SDS011;10510;47.942;9.442;2022-12-17T07:21:51;22.75;;;10.10;;
11486;SDS011;10510;47.942;9.442;2022-12-17T07:24:10;20.42;;;8.02;;
11486;SDS011;10510;47.942;9.442;2022-12-17T07:26:29;24.15;;;9.38;;
11486;SDS011;10510;47.942;9.442;2022-12-17T07:28:48;22.75;;;8.52;;
11486;SDS011;10510;47.942;9.442;2022-12-17T07:31:07;22.17;;;8.10;;
11486;SDS011;10510;47.942;9.442;2022-12-17T07:33:26;21.75;;;7.72;;
11486;SDS011;10510;47.942;9.442;2022-12-17T07:35:44;24.35;;;9.45;;
11486;SDS011;10510;47.942;9.442;2022-12-17T07:38:03;15.75;;;7.18;;
11486;SDS011;10510;47.942;9.442;2022-12-17T07:40:23;19.58;;;9.10;;
11486;SDS011;10510;47.942;9.442;2022-12-17T07:42:42;19.23;;;8.57;;
11486;SDS011;10510;47.942;9.442;2022-12-17T07:45:08;21.42;;;8.38;;
11486;SDS011;10510;47.942;9.442;2022-12-17T07:47:27;26.25;;;10.57;;
11486;SDS011;10510;47.942;9.442;2022-12-17T07:49:46;20.08;;;8.55;;
11486;SDS011;10510;47.942;9.442;2022-12-17T07:52:05;21.27;;;9.63;;
11486;SDS011;10510;47.942;9.442;2022-12-17T07:54:23;27.80;;;9.85;;
11486;SDS011;10510;47.942;9.442;2022-12-17T07:56:42;21.58;;;8.93;;
11486;SDS011;10510;47.942;9.442;2022-12-17T07:59:01;25.55;;;11.15;;
11486;SDS011;10510;47.942;9.442;2022-12-17T08:01:20;33.30;;;13.65;;
11486;SDS011;10510;47.942;9.442;2022-12-17T08:03:39;43.17;;;15.05;;
11486;SDS011;10510;47.942;9.442;2022-12-17T08:05:58;27.65;;;11.68;;
11486;SDS011;10510;47.942;9.442;2022-12-17T08:08:20;33.80;;;12.68;;
11486;SDS011;10510;47.942;9.442;2022-12-17T08:10:39;34.28;;;12.40;;
11486;SDS011;10510;47.942;9.442;2022-12-17T08:12:58;29.75;;;12.13;;
11486;SDS011;10510;47.942;9.442;2022-12-17T08:15:19;28.27;;;10.68;;
11486;SDS011;10510;47.942;9.442;2022-12-17T08:17:38;37.67;;;12.13;;
11486;SDS011;10510;47.942;9.442;2022-12-17T08:19:57;27.95;;;11.55;;
11486;SDS011;10510;47.942;9.442;2022-12-17T08:22:15;22.30;;;10.10;;
11486;SDS011;10510;47.942;9.442;2022-12-17T08:24:34;23.67;;;11.35;;
11486;SDS011;10510;47.942;9.442;2022-12-17T08:26:53;27.20;;;10.98;;
11486;SDS011;10510;47.942;9.442;2022-12-17T08:29:12;28.00;;;11.88;;
11486;SDS011;10510;47.942;9.442;2022-12-17T08:31:30;37.80;;;11.70;;
11486;SDS011;10510;47.942;9.442;2022-12-17T08:33:49;42.22;;;13.52;;
11486;SDS011;10510;47.942;9.442;2022-12-17T08:36:08;46.75;;;15.65;;
11486;SDS011;10510;47.942;9.442;2022-12-17T08:38:27;42.05;;;14.52;;
11486;SDS011;10510;47.942;9.442;2022-12-17T08:40:46;39.95;;;16.40;;
11486;SDS011;10510;47.942;9.442;2022-12-17T08:43:04;55.67;;;18.58;;
11486;SDS011;10510;47.942;9.442;2022-12-17T08:45:23;53.38;;;17.05;;
11486;SDS011;10510;47.942;9.442;2022-12-17T08:47:41;51.83;;;19.92;;
11486;SDS011;10510;47.942;9.442;2022-12-17T08:50:00;70.63;;;27.48;;
11486;SDS011;10510;47.942;9.442;2022-12-17T08:52:19;53.55;;;19.00;;
11486;SDS011;10510;47.942;9.442;2022-12-17T08:54:38;47.92;;;17.98;;
11486;SDS011;10510;47.942;9.442;2022-12-17T08:56:57;66.65;;;25.30;;
11486;SDS011;10510;47.942;9.442;2022-12-17T08:59:16;58.35;;;23.70;;
11486;SDS011;10510;47.942;9.442;2022-12-17T09:01:35;45.58;;;17.55;;
11486;SDS011;10510;47.942;9.442;2022-12-17T09:03:53;48.85;;;21.55;;
11486;SDS011;10510;47.942;9.442;2022-12-17T09:06:12;47.15;;;19.70;;
11486;SDS011;10510;47.942;9.442;2022-12-17T09:08:31;51.20;;;17.77;;
11486;SDS011;10510;47.942;9.442;2022-12-17T09:10:50;32.47;;;16.20;;
11486;SDS011;10510;47.942;9.442;2022-12-17T09:13:09;36.45;;;17.17;;
11486;SDS011;10510;47.942;9.442;2022-12-17T09:15:29;47.88;;;20.02;;
11486;SDS011;10510;47.942;9.442;2022-12-17T09:17:49;51.88;;;18.10;;
11486;SDS011;10510;47.942;9.442;2022-12-17T09:20:09;35.38;;;15.10;;
11486;SDS011;10510;47.942;9.442;2022-12-17T09:22:28;30.98;;;14.30;;
11486;SDS011;10510;47.942;9.442;2022-12-17T09:24:47;31.55;;;15.00;;
11486;SDS011;10510;47.942;9.442;2022-12-17T09:27:06;35.63;;;17.25;;
11486;SDS011;10510;47.942;9.442;2022-12-17T09:29:38;41.15;;;17.58;;
11486;SDS011;10510;47.942;9.442;2022-12-17T09:31:57;33.90;;;16.58;;
11486;SDS011;10510;47.942;9.442;2022-12-17T09:34:17;35.10;;;16.63;;
11486;SDS011;10510;47.942;9.442;2022-12-17T09:36:36;32.80;;;14.45;;
11486;SDS011;10510;47.942;9.442;2022-12-17T09:38:55;34.80;;;16.85;;
11486;SDS011;10510;47.942;9.442;2022-12-17T09:46:04;40.72;;;18.38;;
11486;SDS011;10510;47.942;9.442;2022-12-17T09:51:25;124.05;;;37.83;;
11486;SDS011;10510;47.942;9.442;2022-12-17T09:53:46;178.48;;;54.58;;
11486;SDS011;10510;47.942;9.442;2022-12-17T09:56:11;111.28;;;38.92;;
11486;SDS011;10510;47.942;9.442;2022-12-17T09:58:34;82.25;;;28.63;;
11486;SDS011;10510;47.942;9.442;2022-12-17T10:00:54;62.13;;;23.92;;
11486;SDS011;10510;47.942;9.442;2022-12-17T10:03:22;66.13;;;24.85;;
11486;SDS011;10510;47.942;9.442;2022-12-17T10:05:41;84.60;;;28.13;;
11486;SDS011;10510;47.942;9.442;2022-12-17T10:08:03;35.65;;;16.27;;
11486;SDS011;10510;47.942;9.442;2022-12-17T10:10:25;118.55;;;37.90;;
11486;SDS011;10510;47.942;9.442;2022-12-17T10:12:47;75.18;;;28.17;;
11486;SDS011;10510;47.942;9.442;2022-12-17T10:15:06;46.45;;;18.67;;
11486;SDS011;10510;47.942;9.442;2022-12-17T10:17:31;30.85;;;14.43;;
11486;SDS011;10510;47.942;9.442;2022-12-17T10:19:50;34.47;;;16.25;;
11486;SDS011;10510;47.942;9.442;2022-12-17T10:22:13;48.47;;;19.80;;
11486;SDS011;10510;47.942;9.442;2022-12-17T10:24:42;49.92;;;24.92;;
11486;SDS011;10510;47.942;9.442;2022-12-17T10:27:14;31.73;;;16.50;;
11486;SDS011;10510;47.942;9.442;2022-12-17T10:29:39;26.70;;;14.43;;
11486;SDS011;10510;47.942;9.442;2022-12-17T10:32:10;43.85;;;17.83;;
11486;SDS011;10510;47.942;9.442;2022-12-17T10:34:34;55.10;;;19.58;;
11486;SDS011;10510;47.942;9.442;2022-12-17T10:36:55;48.28;;;19.75;;
11486;SDS011;10510;47.942;9.442;2022-12-17T10:39:17;39.90;;;16.02;;
11486;SDS011;10510;47.942;9.442;2022-12-17T10:41:41;38.92;;;17.58;;
11486;SDS011;10510;47.942;9.442;2022-12-17T10:44:00;36.53;;;17.35;;
11486;SDS011;10510;47.942;9.442;2022-12-17T10:46:26;37.17;;;18.13;;
11486;SDS011;10510;47.942;9.442;2022-12-17T10:48:47;34.45;;;18.00;;
11486;SDS011;10510;47.942;9.442;2022-12-17T10:51:16;38.45;;;19.05;;
11486;SDS011;10510;47.942;9.442;2022-12-17T10:54:02;35.78;;;16.67;;
11486;SDS011;10510;47.942;9.442;2022-12-17T10:56:43;27.10;;;14.68;;
11486;SDS011;10510;47.942;9.442;2022-12-17T11:01:49;27.70;;;12.68;;
11486;SDS011;10510;47.942;9.442;2022-12-17T11:06:45;25.77;;;14.10;;
11486;SDS011;10510;47.942;9.442;2022-12-17T11:09:12;29.25;;;14.57;;
11486;SDS011;10510;47.942;9.442;2022-12-17T11:11:36;28.25;;;13.63;;
11486;SDS011;10510;47.942;9.442;2022-12-17T11:13:55;28.75;;;14.70;;
11486;SDS011;10510;47.942;9.442;2022-12-17T11:16:23;26.15;;;13.43;;
11486;SDS011;10510;47.942;9.442;2022-12-17T11:19:04;26.58;;;13.65;;
11486;SDS011;10510;47.942;9.442;2022-12-17T11:21:38;32.50;;;14.27;;
11486;SDS011;10510;47.942;9.442;2022-12-17T11:24:00;28.20;;;13.50;;
11486;SDS011;10510;47.942;9.442;2022-12-17T11:26:20;28.35;;;14.02;;
11486;SDS011;10510;47.942;9.442;2022-12-17T11:28:41;27.52;;;14.93;;
11486;SDS011;10510;47.942;9.442;2022-12-17T11:33:57;26.15;;;12.95;;
11486;SDS011;10510;47.942;9.442;2022-12-17T11:36:30;31.38;;;16.23;;
11486;SDS011;10510;47.942;9.442;2022-12-17T11:51:50;69.38;;;24.67;;
11486;SDS011;10510;47.942;9.442;2022-12-17T11:54:28;196.43;;;56.60;;
11486;SDS011;10510;47.942;9.442;2022-12-17T11:59:35;51.90;;;22.08;;
11486;SDS011;10510;47.942;9.442;2022-12-17T12:04:53;134.10;;;44.65;;
11486;SDS011;10510;47.942;9.442;2022-12-17T12:07:34;61.45;;;26.40;;
11486;SDS011;10510;47.942;9.442;2022-12-17T12:10:02;68.30;;;26.05;;
11486;SDS011;10510;47.942;9.442;2022-12-17T12:17:45;47.75;;;21.08;;
11486;SDS011;10510;47.942;9.442;2022-12-17T12:22:32;50.60;;;23.83;;
11486;SDS011;10510;47.942;9.442;2022-12-17T12:25:07;42.40;;;19.35;;
11486;SDS011;10510;47.942;9.442;2022-12-17T12:30:45;44.58;;;21.48;;
11486;SDS011;10510;47.942;9.442;2022-12-17T12:33:20;38.42;;;19.27;;
11486;SDS011;10510;47.942;9.442;2022-12-17T12:35:50;41.30;;;19.73;;
11486;SDS011;10510;47.942;9.442;2022-12-17T12:38:17;46.70;;;27.63;;
11486;SDS011;10510;47.942;9.442;2022-12-17T12:41:01;42.95;;;23.60;;
11486;SDS011;10510;47.942;9.442;2022-12-17T12:43:28;34.55;;;18.08;;
11486;SDS011;10510;47.942;9.442;2022-12-17T12:50:54;35.97;;;17.77;;
11486;SDS011;10510;47.942;9.442;2022-12-17T12:53:20;34.33;;;17.08;;
11486;SDS011;10510;47.942;9.442;2022-12-17T12:55:39;33.90;;;16.98;;
11486;SDS011;10510;47.942;9.442;2022-12-17T12:58:01;32.80;;;17.77;;
11486;SDS011;10510;47.942;9.442;2022-12-17T13:02:47;36.28;;;16.70;;
11486;SDS011;10510;47.942;9.442;2022-12-17T13:07:43;41.00;;;18.42;;
11486;SDS011;10510;47.942;9.442;2022-12-17T13:09:47;34.13;;;18.48;;
11486;SDS011;10510;47.942;9.442;2022-12-17T13:12:08;33.90;;;16.90;;
11486;SDS011;10510;47.942;9.442;2022-12-17T13:14:20;39.13;;;18.92;;
11486;SDS011;10510;47.942;9.442;2022-12-17T13:18:36;33.67;;;17.13;;
11486;SDS011;10510;47.942;9.442;2022-12-17T13:20:39;33.83;;;17.75;;
11486;SDS011;10510;47.942;9.442;2022-12-17T13:22:47;37.53;;;17.55;;
11486;SDS011;10510;47.942;9.442;2022-12-17T13:24:51;43.08;;;19.17;;
11486;SDS011;10510;47.942;9.442;2022-12-17T13:26:53;38.35;;;19.65;;
11486;SDS011;10510;47.942;9.442;2022-12-17T13:31:05;36.67;;;17.50;;
11486;SDS011;10510;47.942;9.442;2022-12-17T13:37:52;38.95;;;18.80;;
11486;SDS011;10510;47.942;9.442;2022-12-17T13:40:12;38.33;;;18.20;;
11486;SDS011;10510;47.942;9.442;2022-12-17T13:42:29;33.03;;;15.68;;
11486;SDS011;10510;47.942;9.442;2022-12-17T13:44:36;35.97;;;17.10;;
11486;SDS011;10510;47.942;9.442;2022-12-17T13:46:41;40.60;;;17.92;;
11486;SDS011;10510;47.942;9.442;2022-12-17T13:48:43;39.22;;;17.10;;
11486;SDS011;10510;47.942;9.442;2022-12-17T13:50:52;35.45;;;16.10;;
11486;SDS011;10510;47.942;9.442;2022-12-17T13:52:54;37.80;;;16.63;;
11486;SDS011;10510;47.942;9.442;2022-12-17T13:55:05;41.80;;;17.05;;
11486;SDS011;10510;47.942;9.442;2022-12-17T13:57:17;40.08;;;18.05;;
11486;SDS011;10510;47.942;9.442;2022-12-17T13:59:20;38.67;;;18.95;;
11486;SDS011;10510;47.942;9.442;2022-12-17T14:01:23;41.40;;;20.42;;
11486;SDS011;10510;47.942;9.442;2022-12-17T14:03:25;46.55;;;21.15;;
11486;SDS011;10510;47.942;9.442;2022-12-17T14:05:26;34.50;;;17.63;;
11486;SDS011;10510;47.942;9.442;2022-12-17T14:07:33;39.08;;;18.33;;
11486;SDS011;10510;47.942;9.442;2022-12-17T14:09:38;41.22;;;19.42;;
11486;SDS011;10510;47.942;9.442;2022-12-17T14:11:41;40.05;;;17.83;;
11486;SDS011;10510;47.942;9.442;2022-12-17T14:14:00;38.83;;;18.13;;
11486;SDS011;10510;47.942;9.442;2022-12-17T14:16:02;33.53;;;18.05;;
11486;SDS011;10510;47.942;9.442;2022-12-17T14:18:02;32.85;;;16.00;;
11486;SDS011;10510;47.942;9.442;2022-12-17T14:20:04;35.80;;;17.42;;
11486;SDS011;10510;47.942;9.442;2022-12-17T14:22:08;34.15;;;15.65;;
11486;SDS011;10510;47.942;9.442;2022-12-17T14:24:19;28.85;;;15.80;;
11486;SDS011;10510;47.942;9.442;2022-12-17T14:26:25;32.45;;;17.33;;
11486;SDS011;10510;47.942;9.442;2022-12-17T14:28:33;38.78;;;17.95;;
11486;SDS011;10510;47.942;9.442;2022-12-17T14:30:36;39.63;;;18.23;;
11486;SDS011;10510;47.942;9.442;2022-12-17T14:32:38;38.80;;;18.30;;
11486;SDS011;10510;47.942;9.442;2022-12-17T14:34:42;65.45;;;27.08;;
11486;SDS011;10510;47.942;9.442;2022-12-17T14:36:43;103.03;;;37.90;;
11486;SDS011;10510;47.942;9.442;2022-12-17T14:38:53;139.20;;;50.22;;
11486;SDS011;10510;47.942;9.442;2022-12-17T14:41:00;146.63;;;41.15;;
11486;SDS011;10510;47.942;9.442;2022-12-17T14:43:22;59.83;;;25.35;;
11486;SDS011;10510;47.942;9.442;2022-12-17T14:45:28;71.65;;;25.95;;
11486;SDS011;10510;47.942;9.442;2022-12-17T14:47:29;49.45;;;21.35;;
11486;SDS011;10510;47.942;9.442;2022-12-17T14:49:32;46.22;;;20.50;;